sensor_id;sensor_type;location;lat;lon;timestamp;P1;durP1;ratioP1;P2;durP2;ratioP2
76176;SDS011;64938;47.696;8.066;2023-02-01T00:02:13;8.23;;;7.20;;
76176;SDS011;64938;47.696;8.066;2023-02-01T00:04:39;8.23;;;7.00;;
76176;SDS011;64938;47.696;8.066;2023-02-01T00:07:05;8.63;;;6.33;;
76176;SDS011;64938;47.696;8.066;2023-02-01T00:09:31;9.00;;;7.50;;
76176;SDS011;64938;47.696;8.066;2023-02-01T00:11:57;8.87;;;7.07;;
76176;SDS011;64938;47.696;8.066;2023-02-01T00:14:27;9.03;;;6.60;;
76176;SDS011;64938;47.696;8.066;2023-02-01T00:16:53;9.37;;;7.17;;
76176;SDS011;64938;47.696;8.066;2023-02-01T00:19:18;10.00;;;6.83;;
76176;SDS011;64938;47.696;8.066;2023-02-01T00:21:44;7.00;;;6.00;;
76176;SDS011;64938;47.696;8.066;2023-02-01T00:24:11;7.63;;;6.40;;
76176;SDS011;64938;47.696;8.066;2023-02-01T00:26:37;8.30;;;5.93;;
76176;SDS011;64938;47.696;8.066;2023-02-01T00:29:08;10.30;;;6.90;;
76176;SDS011;64938;47.696;8.066;2023-02-01T00:31:36;9.20;;;6.77;;
76176;SDS011;64938;47.696;8.066;2023-02-01T00:34:02;7.97;;;6.50;;
76176;SDS011;64938;47.696;8.066;2023-02-01T00:36:30;9.10;;;6.37;;
76176;SDS011;64938;47.696;8.066;2023-02-01T00:38:56;8.73;;;6.90;;
76176;SDS011;64938;47.696;8.066;2023-02-01T00:41:22;9.50;;;7.07;;
76176;SDS011;64938;47.696;8.066;2023-02-01T00:43:48;8.50;;;6.80;;
76176;SDS011;64938;47.696;8.066;2023-02-01T00:46:14;9.37;;;7.30;;
76176;SDS011;64938;47.696;8.066;2023-02-01T00:48:44;9.80;;;7.40;;
76176;SDS011;64938;47.696;8.066;2023-02-01T00:51:13;9.70;;;7.00;;
76176;SDS011;64938;47.696;8.066;2023-02-01T00:53:43;9.40;;;6.77;;
76176;SDS011;64938;47.696;8.066;2023-02-01T00:56:08;8.00;;;6.50;;
76176;SDS011;64938;47.696;8.066;2023-02-01T00:58:36;10.60;;;6.63;;
76176;SDS011;64938;47.696;8.066;2023-02-01T01:01:04;12.17;;;7.90;;
76176;SDS011;64938;47.696;8.066;2023-02-01T01:03:36;12.37;;;8.00;;
76176;SDS011;64938;47.696;8.066;2023-02-01T01:06:04;10.40;;;8.03;;
76176;SDS011;64938;47.696;8.066;2023-02-01T01:08:32;9.23;;;7.13;;
76176;SDS011;64938;47.696;8.066;2023-02-01T01:11:00;11.23;;;7.90;;
76176;SDS011;64938;47.696;8.066;2023-02-01T01:13:32;11.97;;;8.40;;
76176;SDS011;64938;47.696;8.066;2023-02-01T01:15:59;12.90;;;8.60;;
76176;SDS011;64938;47.696;8.066;2023-02-01T01:18:27;11.27;;;8.70;;
76176;SDS011;64938;47.696;8.066;2023-02-01T01:20:54;12.87;;;9.13;;
76176;SDS011;64938;47.696;8.066;2023-02-01T01:23:19;10.40;;;9.17;;
76176;SDS011;64938;47.696;8.066;2023-02-01T01:25:45;11.83;;;8.60;;
76176;SDS011;64938;47.696;8.066;2023-02-01T01:28:10;11.80;;;8.07;;
76176;SDS011;64938;47.696;8.066;2023-02-01T01:30:36;12.90;;;9.23;;
76176;SDS011;64938;47.696;8.066;2023-02-01T01:33:02;11.90;;;8.77;;
76176;SDS011;64938;47.696;8.066;2023-02-01T01:35:31;10.77;;;8.40;;
76176;SDS011;64938;47.696;8.066;2023-02-01T01:37:58;10.60;;;7.73;;
76176;SDS011;64938;47.696;8.066;2023-02-01T01:40:24;9.97;;;7.57;;
76176;SDS011;64938;47.696;8.066;2023-02-01T01:42:50;12.67;;;9.20;;
76176;SDS011;64938;47.696;8.066;2023-02-01T01:47:50;12.70;;;8.87;;
76176;SDS011;64938;47.696;8.066;2023-02-01T01:50:36;17.37;;;11.17;;
76176;SDS011;64938;47.696;8.066;2023-02-01T01:53:07;13.57;;;10.40;;
76176;SDS011;64938;47.696;8.066;2023-02-01T01:55:35;16.17;;;10.93;;
76176;SDS011;64938;47.696;8.066;2023-02-01T01:58:06;16.30;;;10.50;;
76176;SDS011;64938;47.696;8.066;2023-02-01T02:00:33;12.17;;;9.57;;
76176;SDS011;64938;47.696;8.066;2023-02-01T02:03:08;12.87;;;9.30;;
76176;SDS011;64938;47.696;8.066;2023-02-01T02:05:39;13.47;;;9.77;;
76176;SDS011;64938;47.696;8.066;2023-02-01T02:08:05;13.93;;;10.43;;
76176;SDS011;64938;47.696;8.066;2023-02-01T02:10:31;16.70;;;9.93;;
76176;SDS011;64938;47.696;8.066;2023-02-01T02:13:16;13.80;;;9.80;;
76176;SDS011;64938;47.696;8.066;2023-02-01T02:15:43;14.20;;;9.50;;
76176;SDS011;64938;47.696;8.066;2023-02-01T02:18:19;14.30;;;9.27;;
76176;SDS011;64938;47.696;8.066;2023-02-01T02:21:51;12.90;;;9.37;;
76176;SDS011;64938;47.696;8.066;2023-02-01T02:26:51;15.13;;;9.10;;
76176;SDS011;64938;47.696;8.066;2023-02-01T02:38:01;14.00;;;10.00;;
76176;SDS011;64938;47.696;8.066;2023-02-01T02:40:31;16.70;;;9.03;;
76176;SDS011;64938;47.696;8.066;2023-02-01T02:43:05;12.60;;;8.43;;
76176;SDS011;64938;47.696;8.066;2023-02-01T02:46:16;17.50;;;9.57;;
76176;SDS011;64938;47.696;8.066;2023-02-01T02:51:46;50.33;;;13.60;;
76176;SDS011;64938;47.696;8.066;2023-02-01T02:54:36;63.03;;;13.73;;
76176;SDS011;64938;47.696;8.066;2023-02-01T02:57:35;41.43;;;12.80;;
76176;SDS011;64938;47.696;8.066;2023-02-01T03:00:22;38.87;;;11.00;;
76176;SDS011;64938;47.696;8.066;2023-02-01T03:03:09;17.00;;;8.97;;
76176;SDS011;64938;47.696;8.066;2023-02-01T03:05:53;115.77;;;17.30;;
76176;SDS011;64938;47.696;8.066;2023-02-01T03:08:25;219.10;;;26.30;;
76176;SDS011;64938;47.696;8.066;2023-02-01T03:11:02;82.37;;;17.97;;
76176;SDS011;64938;47.696;8.066;2023-02-01T03:20:59;175.97;;;24.60;;
76176;SDS011;64938;47.696;8.066;2023-02-01T03:23:27;558.73;;;56.27;;
76176;SDS011;64938;47.696;8.066;2023-02-01T03:25:56;117.33;;;19.60;;
76176;SDS011;64938;47.696;8.066;2023-02-01T03:28:24;296.23;;;33.70;;
76176;SDS011;64938;47.696;8.066;2023-02-01T03:30:51;58.63;;;13.57;;
76176;SDS011;64938;47.696;8.066;2023-02-01T03:33:17;228.37;;;31.77;;
76176;SDS011;64938;47.696;8.066;2023-02-01T03:35:50;153.50;;;24.43;;
76176;SDS011;64938;47.696;8.066;2023-02-01T03:40:58;69.13;;;14.80;;
76176;SDS011;64938;47.696;8.066;2023-02-01T03:44:00;52.03;;;13.77;;
76176;SDS011;64938;47.696;8.066;2023-02-01T03:46:33;187.57;;;24.80;;
76176;SDS011;64938;47.696;8.066;2023-02-01T03:49:05;443.30;;;49.47;;
76176;SDS011;64938;47.696;8.066;2023-02-01T03:51:32;124.80;;;19.27;;
76176;SDS011;64938;47.696;8.066;2023-02-01T03:53:58;113.63;;;21.63;;
76176;SDS011;64938;47.696;8.066;2023-02-01T03:56:24;139.90;;;22.37;;
76176;SDS011;64938;47.696;8.066;2023-02-01T03:58:51;106.20;;;19.30;;
76176;SDS011;64938;47.696;8.066;2023-02-01T04:01:26;84.43;;;16.53;;
76176;SDS011;64938;47.696;8.066;2023-02-01T04:03:56;148.10;;;22.40;;
76176;SDS011;64938;47.696;8.066;2023-02-01T04:06:23;85.17;;;15.30;;
76176;SDS011;64938;47.696;8.066;2023-02-01T04:08:50;312.30;;;39.80;;
76176;SDS011;64938;47.696;8.066;2023-02-01T04:11:15;48.10;;;14.47;;
76176;SDS011;64938;47.696;8.066;2023-02-01T04:13:41;88.40;;;16.17;;
76176;SDS011;64938;47.696;8.066;2023-02-01T04:16:08;140.70;;;20.83;;
76176;SDS011;64938;47.696;8.066;2023-02-01T04:18:34;397.37;;;40.20;;
76176;SDS011;64938;47.696;8.066;2023-02-01T04:21:00;205.23;;;27.40;;
76176;SDS011;64938;47.696;8.066;2023-02-01T04:23:27;235.30;;;30.17;;
76176;SDS011;64938;47.696;8.066;2023-02-01T04:25:53;236.53;;;30.97;;
76176;SDS011;64938;47.696;8.066;2023-02-01T04:28:19;275.93;;;33.07;;
76176;SDS011;64938;47.696;8.066;2023-02-01T04:30:45;217.07;;;27.40;;
76176;SDS011;64938;47.696;8.066;2023-02-01T04:33:10;153.87;;;21.50;;
76176;SDS011;64938;47.696;8.066;2023-02-01T04:35:39;109.00;;;19.53;;
76176;SDS011;64938;47.696;8.066;2023-02-01T04:38:05;145.23;;;22.83;;
76176;SDS011;64938;47.696;8.066;2023-02-01T04:40:30;189.00;;;29.23;;
76176;SDS011;64938;47.696;8.066;2023-02-01T04:43:03;57.97;;;13.83;;
76176;SDS011;64938;47.696;8.066;2023-02-01T04:45:29;88.33;;;16.67;;
76176;SDS011;64938;47.696;8.066;2023-02-01T04:47:55;91.90;;;17.10;;
76176;SDS011;64938;47.696;8.066;2023-02-01T04:50:20;40.53;;;12.93;;
76176;SDS011;64938;47.696;8.066;2023-02-01T04:52:46;105.40;;;16.20;;
76176;SDS011;64938;47.696;8.066;2023-02-01T04:55:12;43.67;;;12.03;;
76176;SDS011;64938;47.696;8.066;2023-02-01T04:57:41;139.80;;;21.47;;
76176;SDS011;64938;47.696;8.066;2023-02-01T05:00:07;85.57;;;15.53;;
76176;SDS011;64938;47.696;8.066;2023-02-01T05:02:34;168.60;;;22.20;;
76176;SDS011;64938;47.696;8.066;2023-02-01T05:05:00;81.43;;;14.50;;
76176;SDS011;64938;47.696;8.066;2023-02-01T05:07:26;53.53;;;12.30;;
76176;SDS011;64938;47.696;8.066;2023-02-01T05:09:51;28.67;;;9.50;;
76176;SDS011;64938;47.696;8.066;2023-02-01T05:12:17;69.67;;;12.70;;
76176;SDS011;64938;47.696;8.066;2023-02-01T05:15:01;61.27;;;13.50;;
76176;SDS011;64938;47.696;8.066;2023-02-01T05:17:27;38.53;;;11.03;;
76176;SDS011;64938;47.696;8.066;2023-02-01T05:19:52;60.93;;;12.17;;
76176;SDS011;64938;47.696;8.066;2023-02-01T05:22:18;138.23;;;19.30;;
76176;SDS011;64938;47.696;8.066;2023-02-01T05:24:47;167.07;;;22.57;;
76176;SDS011;64938;47.696;8.066;2023-02-01T05:27:13;69.87;;;12.53;;
76176;SDS011;64938;47.696;8.066;2023-02-01T05:29:39;131.03;;;17.13;;
76176;SDS011;64938;47.696;8.066;2023-02-01T05:32:05;127.97;;;22.60;;
76176;SDS011;64938;47.696;8.066;2023-02-01T05:34:30;64.27;;;11.60;;
76176;SDS011;64938;47.696;8.066;2023-02-01T05:36:59;91.67;;;15.27;;
76176;SDS011;64938;47.696;8.066;2023-02-01T05:39:25;58.10;;;12.17;;
76176;SDS011;64938;47.696;8.066;2023-02-01T05:41:50;150.40;;;18.60;;
76176;SDS011;64938;47.696;8.066;2023-02-01T05:44:16;128.93;;;18.97;;
76176;SDS011;64938;47.696;8.066;2023-02-01T05:46:41;198.23;;;24.33;;
76176;SDS011;64938;47.696;8.066;2023-02-01T05:49:07;56.57;;;11.37;;
76176;SDS011;64938;47.696;8.066;2023-02-01T05:51:33;148.80;;;20.30;;
76176;SDS011;64938;47.696;8.066;2023-02-01T05:53:59;75.80;;;15.80;;
76176;SDS011;64938;47.696;8.066;2023-02-01T05:56:24;45.10;;;10.53;;
76176;SDS011;64938;47.696;8.066;2023-02-01T05:58:53;11.83;;;6.70;;
76176;SDS011;64938;47.696;8.066;2023-02-01T06:01:19;14.50;;;6.63;;
76176;SDS011;64938;47.696;8.066;2023-02-01T06:03:48;6.80;;;4.80;;
76176;SDS011;64938;47.696;8.066;2023-02-01T06:06:13;5.37;;;3.90;;
76176;SDS011;64938;47.696;8.066;2023-02-01T06:08:39;5.17;;;4.03;;
76176;SDS011;64938;47.696;8.066;2023-02-01T06:11:07;11.23;;;5.20;;
76176;SDS011;64938;47.696;8.066;2023-02-01T06:13:35;4.80;;;3.90;;
76176;SDS011;64938;47.696;8.066;2023-02-01T06:16:01;6.33;;;4.20;;
76176;SDS011;64938;47.696;8.066;2023-02-01T06:18:28;10.73;;;5.50;;
76176;SDS011;64938;47.696;8.066;2023-02-01T06:20:55;6.53;;;4.83;;
76176;SDS011;64938;47.696;8.066;2023-02-01T06:23:22;10.80;;;5.27;;
76176;SDS011;64938;47.696;8.066;2023-02-01T06:25:49;12.67;;;5.60;;
76176;SDS011;64938;47.696;8.066;2023-02-01T06:28:18;15.53;;;5.97;;
76176;SDS011;64938;47.696;8.066;2023-02-01T06:30:44;5.47;;;4.67;;
76176;SDS011;64938;47.696;8.066;2023-02-01T06:33:12;9.60;;;4.87;;
76176;SDS011;64938;47.696;8.066;2023-02-01T06:35:40;21.50;;;5.30;;
76176;SDS011;64938;47.696;8.066;2023-02-01T06:38:07;12.87;;;4.97;;
76176;SDS011;64938;47.696;8.066;2023-02-01T06:40:33;23.50;;;6.00;;
76176;SDS011;64938;47.696;8.066;2023-02-01T06:42:59;23.67;;;6.13;;
76176;SDS011;64938;47.696;8.066;2023-02-01T06:45:24;17.60;;;5.77;;
76176;SDS011;64938;47.696;8.066;2023-02-01T06:47:50;13.17;;;5.13;;
76176;SDS011;64938;47.696;8.066;2023-02-01T06:50:17;15.87;;;5.70;;
76176;SDS011;64938;47.696;8.066;2023-02-01T06:52:43;4.83;;;3.67;;
76176;SDS011;64938;47.696;8.066;2023-02-01T06:55:08;7.67;;;4.50;;
76176;SDS011;64938;47.696;8.066;2023-02-01T06:57:38;12.87;;;5.33;;
76176;SDS011;64938;47.696;8.066;2023-02-01T07:00:04;10.33;;;5.00;;
76176;SDS011;64938;47.696;8.066;2023-02-01T07:02:30;5.90;;;4.33;;
76176;SDS011;64938;47.696;8.066;2023-02-01T07:04:56;5.97;;;4.33;;
76176;SDS011;64938;47.696;8.066;2023-02-01T07:07:21;5.63;;;4.67;;
76176;SDS011;64938;47.696;8.066;2023-02-01T07:09:50;4.00;;;3.43;;
76176;SDS011;64938;47.696;8.066;2023-02-01T07:12:16;10.73;;;4.13;;
76176;SDS011;64938;47.696;8.066;2023-02-01T07:14:41;6.50;;;4.40;;
76176;SDS011;64938;47.696;8.066;2023-02-01T07:17:07;6.20;;;4.17;;
76176;SDS011;64938;47.696;8.066;2023-02-01T07:19:32;16.73;;;7.10;;
76176;SDS011;64938;47.696;8.066;2023-02-01T07:21:58;5.90;;;5.03;;
76176;SDS011;64938;47.696;8.066;2023-02-01T07:24:23;6.17;;;4.30;;
76176;SDS011;64938;47.696;8.066;2023-02-01T07:26:52;6.87;;;4.50;;
76176;SDS011;64938;47.696;8.066;2023-02-01T07:29:18;4.77;;;4.27;;
76176;SDS011;64938;47.696;8.066;2023-02-01T07:31:44;12.07;;;4.70;;
76176;SDS011;64938;47.696;8.066;2023-02-01T07:34:09;18.77;;;6.13;;
76176;SDS011;64938;47.696;8.066;2023-02-01T07:36:35;5.70;;;4.23;;
76176;SDS011;64938;47.696;8.066;2023-02-01T07:39:02;7.27;;;4.50;;
76176;SDS011;64938;47.696;8.066;2023-02-01T07:41:30;5.77;;;5.10;;
76176;SDS011;64938;47.696;8.066;2023-02-01T07:43:56;4.40;;;4.00;;
76176;SDS011;64938;47.696;8.066;2023-02-01T07:46:21;5.03;;;4.50;;
76176;SDS011;64938;47.696;8.066;2023-02-01T07:48:47;5.00;;;3.80;;
76176;SDS011;64938;47.696;8.066;2023-02-01T07:51:13;11.40;;;4.40;;
76176;SDS011;64938;47.696;8.066;2023-02-01T07:53:41;7.90;;;3.97;;
76176;SDS011;64938;47.696;8.066;2023-02-01T07:56:14;17.50;;;6.40;;
76176;SDS011;64938;47.696;8.066;2023-02-01T07:58:41;75.17;;;11.20;;
76176;SDS011;64938;47.696;8.066;2023-02-01T08:01:13;18.03;;;5.60;;
76176;SDS011;64938;47.696;8.066;2023-02-01T08:03:46;45.73;;;8.70;;
76176;SDS011;64938;47.696;8.066;2023-02-01T08:06:14;113.63;;;16.47;;
76176;SDS011;64938;47.696;8.066;2023-02-01T08:08:40;94.07;;;13.70;;
76176;SDS011;64938;47.696;8.066;2023-02-01T08:11:06;67.60;;;10.50;;
76176;SDS011;64938;47.696;8.066;2023-02-01T08:13:33;53.00;;;9.60;;
76176;SDS011;64938;47.696;8.066;2023-02-01T08:16:03;56.37;;;9.00;;
76176;SDS011;64938;47.696;8.066;2023-02-01T08:18:30;37.57;;;6.53;;
76176;SDS011;64938;47.696;8.066;2023-02-01T08:20:56;165.07;;;19.87;;
76176;SDS011;64938;47.696;8.066;2023-02-01T08:23:22;52.67;;;8.80;;
76176;SDS011;64938;47.696;8.066;2023-02-01T08:25:48;28.77;;;5.70;;
76176;SDS011;64938;47.696;8.066;2023-02-01T08:28:14;21.40;;;5.73;;
76176;SDS011;64938;47.696;8.066;2023-02-01T08:30:39;27.30;;;5.63;;
76176;SDS011;64938;47.696;8.066;2023-02-01T08:33:07;49.03;;;8.27;;
76176;SDS011;64938;47.696;8.066;2023-02-01T08:35:34;9.03;;;3.70;;
76176;SDS011;64938;47.696;8.066;2023-02-01T08:38:00;86.20;;;10.60;;
76176;SDS011;64938;47.696;8.066;2023-02-01T08:40:25;60.30;;;8.37;;
76176;SDS011;64938;47.696;8.066;2023-02-01T08:42:51;18.07;;;4.90;;
76176;SDS011;64938;47.696;8.066;2023-02-01T08:45:24;6.80;;;4.00;;
76176;SDS011;64938;47.696;8.066;2023-02-01T08:47:51;9.57;;;3.97;;
76176;SDS011;64938;47.696;8.066;2023-02-01T08:50:18;11.30;;;5.47;;
76176;SDS011;64938;47.696;8.066;2023-02-01T08:52:44;9.30;;;3.70;;
76176;SDS011;64938;47.696;8.066;2023-02-01T08:55:10;16.97;;;4.20;;
76176;SDS011;64938;47.696;8.066;2023-02-01T08:57:35;72.37;;;10.60;;
76176;SDS011;64938;47.696;8.066;2023-02-01T09:00:01;262.00;;;22.43;;
76176;SDS011;64938;47.696;8.066;2023-02-01T09:02:28;315.07;;;36.27;;
76176;SDS011;64938;47.696;8.066;2023-02-01T09:04:55;351.03;;;32.27;;
76176;SDS011;64938;47.696;8.066;2023-02-01T09:07:21;298.93;;;31.53;;
76176;SDS011;64938;47.696;8.066;2023-02-01T09:09:46;393.77;;;35.57;;
76176;SDS011;64938;47.696;8.066;2023-02-01T09:12:12;335.10;;;29.67;;
76176;SDS011;64938;47.696;8.066;2023-02-01T09:14:37;403.20;;;35.63;;
76176;SDS011;64938;47.696;8.066;2023-02-01T09:17:03;277.33;;;27.30;;
76176;SDS011;64938;47.696;8.066;2023-02-01T09:19:30;534.20;;;43.70;;
76176;SDS011;64938;47.696;8.066;2023-02-01T09:21:56;403.13;;;31.43;;
76176;SDS011;64938;47.696;8.066;2023-02-01T09:24:22;187.00;;;17.33;;
76176;SDS011;64938;47.696;8.066;2023-02-01T09:26:47;327.90;;;34.27;;
76176;SDS011;64938;47.696;8.066;2023-02-01T09:29:13;141.47;;;14.60;;
76176;SDS011;64938;47.696;8.066;2023-02-01T09:31:39;158.93;;;18.50;;
76176;SDS011;64938;47.696;8.066;2023-02-01T09:34:07;141.90;;;18.53;;
76176;SDS011;64938;47.696;8.066;2023-02-01T09:36:33;177.27;;;18.93;;
76176;SDS011;64938;47.696;8.066;2023-02-01T09:38:59;198.17;;;20.27;;
76176;SDS011;64938;47.696;8.066;2023-02-01T09:46:57;8.90;;;4.60;;
76176;SDS011;64938;47.696;8.066;2023-02-01T09:49:34;12.57;;;4.93;;
76176;SDS011;64938;47.696;8.066;2023-02-01T09:52:07;30.50;;;6.40;;
76176;SDS011;64938;47.696;8.066;2023-02-01T09:54:40;14.40;;;4.30;;
76176;SDS011;64938;47.696;8.066;2023-02-01T09:57:08;44.87;;;7.80;;
76176;SDS011;64938;47.696;8.066;2023-02-01T09:59:51;16.87;;;5.10;;
76176;SDS011;64938;47.696;8.066;2023-02-01T10:02:21;24.73;;;5.40;;
76176;SDS011;64938;47.696;8.066;2023-02-01T10:04:49;130.43;;;16.90;;
76176;SDS011;64938;47.696;8.066;2023-02-01T10:15:35;205.53;;;21.47;;
76176;SDS011;64938;47.696;8.066;2023-02-01T10:18:19;150.30;;;20.40;;
76176;SDS011;64938;47.696;8.066;2023-02-01T10:21:00;91.63;;;14.50;;
76176;SDS011;64938;47.696;8.066;2023-02-01T10:26:22;18.73;;;6.37;;
76176;SDS011;64938;47.696;8.066;2023-02-01T10:28:56;42.07;;;9.43;;
76176;SDS011;64938;47.696;8.066;2023-02-01T10:31:29;9.47;;;4.97;;
76176;SDS011;64938;47.696;8.066;2023-02-01T10:33:58;9.80;;;5.10;;
76176;SDS011;64938;47.696;8.066;2023-02-01T10:36:28;9.33;;;4.90;;
76176;SDS011;64938;47.696;8.066;2023-02-01T10:38:57;7.37;;;5.40;;
76176;SDS011;64938;47.696;8.066;2023-02-01T10:41:35;6.57;;;5.40;;
76176;SDS011;64938;47.696;8.066;2023-02-01T10:44:04;6.67;;;5.00;;
76176;SDS011;64938;47.696;8.066;2023-02-01T10:46:35;4.73;;;4.20;;
76176;SDS011;64938;47.696;8.066;2023-02-01T10:49:02;6.47;;;5.57;;
76176;SDS011;64938;47.696;8.066;2023-02-01T10:51:39;6.30;;;4.93;;
76176;SDS011;64938;47.696;8.066;2023-02-01T10:54:22;5.50;;;4.30;;
76176;SDS011;64938;47.696;8.066;2023-02-01T10:56:57;8.70;;;5.00;;
76176;SDS011;64938;47.696;8.066;2023-02-01T10:59:24;5.03;;;4.53;;
76176;SDS011;64938;47.696;8.066;2023-02-01T11:01:51;6.03;;;4.77;;
76176;SDS011;64938;47.696;8.066;2023-02-01T11:04:26;6.13;;;5.27;;
76176;SDS011;64938;47.696;8.066;2023-02-01T11:07:07;5.67;;;5.17;;
76176;SDS011;64938;47.696;8.066;2023-02-01T11:09:39;6.03;;;4.93;;
76176;SDS011;64938;47.696;8.066;2023-02-01T11:12:10;5.87;;;4.70;;
76176;SDS011;64938;47.696;8.066;2023-02-01T11:14:48;6.77;;;4.90;;
76176;SDS011;64938;47.696;8.066;2023-02-01T11:19:43;6.20;;;4.90;;
76176;SDS011;64938;47.696;8.066;2023-02-01T11:22:12;6.90;;;4.83;;
76176;SDS011;64938;47.696;8.066;2023-02-01T11:24:39;6.97;;;5.43;;
76176;SDS011;64938;47.696;8.066;2023-02-01T11:27:12;6.00;;;4.50;;
76176;SDS011;64938;47.696;8.066;2023-02-01T11:29:44;6.30;;;4.80;;
76176;SDS011;64938;47.696;8.066;2023-02-01T11:32:12;7.23;;;5.00;;
76176;SDS011;64938;47.696;8.066;2023-02-01T11:34:46;6.13;;;4.87;;
76176;SDS011;64938;47.696;8.066;2023-02-01T11:37:24;6.10;;;4.37;;
76176;SDS011;64938;47.696;8.066;2023-02-01T11:39:57;4.93;;;3.40;;
76176;SDS011;64938;47.696;8.066;2023-02-01T11:42:24;9.90;;;4.63;;
76176;SDS011;64938;47.696;8.066;2023-02-01T11:44:50;4.43;;;4.03;;
76176;SDS011;64938;47.696;8.066;2023-02-01T11:49:43;8.13;;;5.03;;
76176;SDS011;64938;47.696;8.066;2023-02-01T12:03:14;5.80;;;3.90;;
76176;SDS011;64938;47.696;8.066;2023-02-01T12:05:59;7.50;;;4.70;;
76176;SDS011;64938;47.696;8.066;2023-02-01T12:09:07;7.23;;;4.43;;
76176;SDS011;64938;47.696;8.066;2023-02-01T12:11:33;7.30;;;4.90;;
76176;SDS011;64938;47.696;8.066;2023-02-01T12:14:14;7.53;;;4.43;;
76176;SDS011;64938;47.696;8.066;2023-02-01T12:30:12;7.60;;;4.83;;
76176;SDS011;64938;47.696;8.066;2023-02-01T12:32:53;9.53;;;5.57;;
76176;SDS011;64938;47.696;8.066;2023-02-01T12:35:42;6.57;;;4.83;;
76176;SDS011;64938;47.696;8.066;2023-02-01T12:41:16;8.30;;;6.27;;
76176;SDS011;64938;47.696;8.066;2023-02-01T12:51:12;8.43;;;4.60;;
76176;SDS011;64938;47.696;8.066;2023-02-01T12:54:56;4.60;;;3.50;;
76176;SDS011;64938;47.696;8.066;2023-02-01T12:58:35;8.60;;;4.10;;
76176;SDS011;64938;47.696;8.066;2023-02-01T13:05:34;7.97;;;4.40;;
76176;SDS011;64938;47.696;8.066;2023-02-01T13:12:37;8.00;;;4.70;;
76176;SDS011;64938;47.696;8.066;2023-02-01T13:16:15;8.83;;;4.27;;
76176;SDS011;64938;47.696;8.066;2023-02-01T13:23:44;7.07;;;4.77;;
76176;SDS011;64938;47.696;8.066;2023-02-01T13:27:20;5.07;;;4.30;;
76176;SDS011;64938;47.696;8.066;2023-02-01T13:30:54;9.43;;;4.40;;
76176;SDS011;64938;47.696;8.066;2023-02-01T13:35:02;7.20;;;3.77;;
76176;SDS011;64938;47.696;8.066;2023-02-01T13:42:16;14.57;;;3.83;;
76176;SDS011;64938;47.696;8.066;2023-02-01T13:45:44;8.20;;;4.13;;
76176;SDS011;64938;47.696;8.066;2023-02-01T13:48:18;10.00;;;4.10;;
76176;SDS011;64938;47.696;8.066;2023-02-01T13:50:49;9.87;;;4.70;;
76176;SDS011;64938;47.696;8.066;2023-02-01T13:53:18;8.10;;;4.97;;
76176;SDS011;64938;47.696;8.066;2023-02-01T13:56:07;10.57;;;4.50;;
76176;SDS011;64938;47.696;8.066;2023-02-01T13:58:37;9.50;;;4.60;;
76176;SDS011;64938;47.696;8.066;2023-02-01T14:09:10;10.37;;;4.70;;
76176;SDS011;64938;47.696;8.066;2023-02-01T14:21:50;9.10;;;5.30;;
76176;SDS011;64938;47.696;8.066;2023-02-01T14:24:31;10.67;;;6.90;;
76176;SDS011;64938;47.696;8.066;2023-02-01T14:26:59;8.70;;;4.80;;
76176;SDS011;64938;47.696;8.066;2023-02-01T14:29:38;7.73;;;4.97;;
76176;SDS011;64938;47.696;8.066;2023-02-01T14:32:06;10.60;;;5.13;;
76176;SDS011;64938;47.696;8.066;2023-02-01T14:42:42;6.50;;;4.60;;
76176;SDS011;64938;47.696;8.066;2023-02-01T14:48:39;11.80;;;4.40;;
76176;SDS011;64938;47.696;8.066;2023-02-01T14:50:36;16.80;;;5.73;;
76176;SDS011;64938;47.696;8.066;2023-02-01T15:01:25;11.00;;;4.40;;
76176;SDS011;64938;47.696;8.066;2023-02-01T15:08:46;7.27;;;4.37;;
76176;SDS011;64938;47.696;8.066;2023-02-01T15:11:14;11.07;;;5.07;;
76176;SDS011;64938;47.696;8.066;2023-02-01T15:13:40;11.07;;;5.47;;
76176;SDS011;64938;47.696;8.066;2023-02-01T15:16:20;8.30;;;4.60;;
76176;SDS011;64938;47.696;8.066;2023-02-01T15:18:47;15.70;;;6.00;;
76176;SDS011;64938;47.696;8.066;2023-02-01T15:21:15;9.60;;;5.97;;
76176;SDS011;64938;47.696;8.066;2023-02-01T15:23:45;9.57;;;4.63;;
76176;SDS011;64938;47.696;8.066;2023-02-01T15:26:29;14.63;;;4.90;;
76176;SDS011;64938;47.696;8.066;2023-02-01T15:28:57;13.67;;;5.53;;
76176;SDS011;64938;47.696;8.066;2023-02-01T15:31:36;7.90;;;4.50;;
76176;SDS011;64938;47.696;8.066;2023-02-01T15:34:03;10.03;;;5.10;;
76176;SDS011;64938;47.696;8.066;2023-02-01T15:36:29;7.50;;;4.97;;
76176;SDS011;64938;47.696;8.066;2023-02-01T15:44:29;8.00;;;4.27;;
76176;SDS011;64938;47.696;8.066;2023-02-01T15:46:56;6.50;;;4.03;;
76176;SDS011;64938;47.696;8.066;2023-02-01T15:49:32;9.00;;;4.83;;
76176;SDS011;64938;47.696;8.066;2023-02-01T15:52:03;9.70;;;4.90;;
76176;SDS011;64938;47.696;8.066;2023-02-01T15:54:42;10.07;;;5.60;;
76176;SDS011;64938;47.696;8.066;2023-02-01T15:57:11;7.10;;;4.40;;
76176;SDS011;64938;47.696;8.066;2023-02-01T15:59:39;9.33;;;4.67;;
76176;SDS011;64938;47.696;8.066;2023-02-01T16:04:52;11.30;;;5.37;;
76176;SDS011;64938;47.696;8.066;2023-02-01T16:07:25;10.63;;;5.00;;
76176;SDS011;64938;47.696;8.066;2023-02-01T16:09:54;11.87;;;5.50;;
76176;SDS011;64938;47.696;8.066;2023-02-01T16:12:32;11.87;;;4.70;;
76176;SDS011;64938;47.696;8.066;2023-02-01T16:15:00;9.43;;;4.83;;
76176;SDS011;64938;47.696;8.066;2023-02-01T16:17:25;10.17;;;4.70;;
76176;SDS011;64938;47.696;8.066;2023-02-01T16:19:51;9.20;;;5.20;;
76176;SDS011;64938;47.696;8.066;2023-02-01T16:22:17;7.17;;;4.80;;
76176;SDS011;64938;47.696;8.066;2023-02-01T16:24:42;9.30;;;4.50;;
76176;SDS011;64938;47.696;8.066;2023-02-01T16:27:08;10.50;;;5.53;;
76176;SDS011;64938;47.696;8.066;2023-02-01T16:29:33;10.97;;;6.07;;
76176;SDS011;64938;47.696;8.066;2023-02-01T16:31:59;14.87;;;6.07;;
76176;SDS011;64938;47.696;8.066;2023-02-01T16:34:25;10.20;;;5.80;;
76176;SDS011;64938;47.696;8.066;2023-02-01T16:36:51;10.47;;;5.90;;
76176;SDS011;64938;47.696;8.066;2023-02-01T16:39:21;12.50;;;5.90;;
76176;SDS011;64938;47.696;8.066;2023-02-01T16:41:47;12.40;;;6.37;;
76176;SDS011;64938;47.696;8.066;2023-02-01T16:44:12;17.00;;;5.83;;
76176;SDS011;64938;47.696;8.066;2023-02-01T16:46:39;7.43;;;5.37;;
76176;SDS011;64938;47.696;8.066;2023-02-01T16:49:13;7.10;;;5.27;;
76176;SDS011;64938;47.696;8.066;2023-02-01T16:51:42;9.77;;;5.30;;
76176;SDS011;64938;47.696;8.066;2023-02-01T16:54:08;8.10;;;5.43;;
76176;SDS011;64938;47.696;8.066;2023-02-01T16:56:33;9.63;;;5.17;;
76176;SDS011;64938;47.696;8.066;2023-02-01T16:59:00;14.57;;;5.50;;
76176;SDS011;64938;47.696;8.066;2023-02-01T17:01:26;8.73;;;5.63;;
76176;SDS011;64938;47.696;8.066;2023-02-01T17:03:52;8.50;;;6.13;;
76176;SDS011;64938;47.696;8.066;2023-02-01T17:06:20;10.37;;;4.60;;
76176;SDS011;64938;47.696;8.066;2023-02-01T17:08:51;12.20;;;5.53;;
76176;SDS011;64938;47.696;8.066;2023-02-01T17:11:23;7.90;;;4.80;;
76176;SDS011;64938;47.696;8.066;2023-02-01T17:13:49;10.37;;;5.03;;
76176;SDS011;64938;47.696;8.066;2023-02-01T17:18:43;13.17;;;5.60;;
76176;SDS011;64938;47.696;8.066;2023-02-01T17:21:12;13.07;;;6.00;;
76176;SDS011;64938;47.696;8.066;2023-02-01T17:23:38;9.47;;;5.10;;
76176;SDS011;64938;47.696;8.066;2023-02-01T17:26:03;11.20;;;4.97;;
76176;SDS011;64938;47.696;8.066;2023-02-01T17:28:29;12.60;;;6.03;;
76176;SDS011;64938;47.696;8.066;2023-02-01T17:30:55;9.17;;;5.30;;